Time;durP1;ratioP1;P1;durP2;ratioP2;P2;SDS_P1;SDS_P2;PMS_P1;PMS_P2;Temp;Humidity;BMP_temperature;BMP_pressure;BME280_temperature;BME280_humidity;BME280_pressure;Samples;Min_cycle;Max_cycle;Signal;HPM_P1;HPM_P2
2021/08/15 00:00:53;;;;;;;;;;;;;;;23.52;68.96;96930.13;222851;260;98019;-48
2021/08/15 00:01:54;;;;;;;;;;;;;;;23.51;68.93;96927.13;223107;260;98977;-51
2021/08/15 00:02:55;;;;;;;;;;;;;;;23.51;68.94;96926.55;221991;261;98941;-48
2021/08/15 00:03:57;;;;;;;;;;;;;;;23.51;68.96;96927.94;221563;262;99018;-46
2021/08/15 00:04:58;;;;;;;;;;;;;;;23.50;69.00;96924.94;221452;262;98951;-48
2021/08/15 00:05:59;;;;;;;;;;;;;;;23.50;69.00;96923.56;220802;262;98003;-48
2021/08/15 00:07:01;;;;;;;;;;;;;;;23.50;68.98;96917.19;222274;261;98151;-50
2021/08/15 00:08:02;;;;;;;;;;;;;;;23.49;68.98;96920.53;221633;261;98978;-46
2021/08/15 00:09:03;;;;;;;;;;;;;;;23.50;69.00;96922.73;222075;261;99428;-51
2021/08/15 00:10:05;;;;;;;;;;;;;;;23.49;69.00;96921.12;221325;261;99087;-47
2021/08/15 00:11:06;;;;;;;;;;;;;;;23.50;68.98;96919.41;220760;262;98993;-51
2021/08/15 00:12:07;;;;;;;;;;;;;;;23.50;68.97;96919.41;221582;261;98938;-47
2021/08/15 00:13:09;;;;;;;;;;;;;;;23.50;68.96;96922.17;220862;262;98061;-52
2021/08/15 00:14:10;;;;;;;;;;;;;;;23.50;69.00;96919.95;221004;261;97069;-46
2021/08/15 00:15:11;;;;;;;;;;;;;;;23.51;68.99;96917.45;221329;261;98937;-46
2021/08/15 00:16:13;;;;;;;;;;;;;;;23.51;68.98;96924.36;221137;262;99151;-46
2021/08/15 00:17:14;;;;;;;;;;;;;;;23.50;68.96;96918.03;221322;261;98949;-46
2021/08/15 00:18:16;;;;;;;;;;;;;;;23.50;68.96;96921.34;220753;262;193182;-47
2021/08/15 00:19:17;;;;;;;;;;;;;;;23.50;68.97;96920.80;221626;261;97901;-49
2021/08/15 00:20:18;;;;;;;;;;;;;;;23.50;68.96;96913.87;220919;262;100288;-49
2021/08/15 00:21:20;;;;;;;;;;;;;;;23.49;68.98;96921.92;221152;262;97960;-46
2021/08/15 00:22:21;;;;;;;;;;;;;;;23.49;69.00;96916.39;220965;262;98031;-48
2021/08/15 00:23:22;;;;;;;;;;;;;;;23.49;68.98;96915.00;220794;262;98016;-46
2021/08/15 00:24:24;;;;;;;;;;;;;;;23.49;68.97;96916.97;220991;261;97996;-47
2021/08/15 00:25:25;;;;;;;;;;;;;;;23.51;69.01;96914.69;220649;262;193563;-50
2021/08/15 00:26:27;;;;;;;;;;;;;;;23.50;68.97;96919.41;221201;262;98946;-47
2021/08/15 00:27:28;;;;;;;;;;;;;;;23.50;68.98;96915.26;220896;262;98936;-49
2021/08/15 00:28:29;;;;;;;;;;;;;;;23.49;68.97;96916.97;221024;262;97998;-49
2021/08/15 00:29:31;;;;;;;;;;;;;;;23.49;69.00;96913.63;221154;261;98093;-46
2021/08/15 00:30:32;;;;;;;;;;;;;;;23.49;68.99;96923.88;221680;262;97944;-47
2021/08/15 00:31:33;;;;;;;;;;;;;;;23.49;68.99;96923.88;221850;261;97082;-51
2021/08/15 00:32:34;;;;;;;;;;;;;;;23.48;69.01;96923.08;221731;261;98949;-48
2021/08/15 00:33:36;;;;;;;;;;;;;;;23.48;68.99;96923.08;222004;261;98965;-47
2021/08/15 00:34:37;;;;;;;;;;;;;;;23.48;68.99;96920.31;220828;262;98004;-52
2021/08/15 00:35:39;;;;;;;;;;;;;;;23.48;69.00;96923.08;221006;262;98080;-50
2021/08/15 00:36:40;;;;;;;;;;;;;;;23.48;69.00;96917.55;221172;261;97983;-49
2021/08/15 00:37:41;;;;;;;;;;;;;;;23.48;69.00;96921.70;221046;262;97085;-47
2021/08/15 00:38:42;;;;;;;;;;;;;;;23.47;68.98;96917.32;221049;261;98777;-50
2021/08/15 00:39:44;;;;;;;;;;;;;;;23.49;69.02;96916.39;220817;262;98969;-47
2021/08/15 00:40:45;;;;;;;;;;;;;;;23.47;69.00;96910.41;221247;262;98963;-51
2021/08/15 00:41:47;;;;;;;;;;;;;;;23.47;69.00;96906.25;221916;261;98016;-50
2021/08/15 00:42:48;;;;;;;;;;;;;;;23.48;69.00;96911.20;223099;260;97867;-46
2021/08/15 00:43:49;;;;;;;;;;;;;;;23.47;68.99;96904.88;221365;260;97080;-52
2021/08/15 00:44:51;;;;;;;;;;;;;;;23.48;68.99;96903.72;221837;262;98951;-46
2021/08/15 00:45:52;;;;;;;;;;;;;;;23.47;68.98;96909.02;221963;261;98935;-48
2021/08/15 00:46:54;;;;;;;;;;;;;;;23.48;69.01;96905.67;221595;261;193124;-50
2021/08/15 00:47:55;;;;;;;;;;;;;;;23.47;68.99;96903.48;221403;262;97998;-46
2021/08/15 00:48:57;;;;;;;;;;;;;;;23.46;68.99;96899.11;221416;262;98946;-47
2021/08/15 00:49:58;;;;;;;;;;;;;;;23.47;68.98;96899.34;221112;262;99010;-46
2021/08/15 00:51:01;;;;;;;;;;;;;;;23.48;69.01;96901.53;222139;261;98998;-46
2021/08/15 00:52:02;;;;;;;;;;;;;;;23.47;68.98;96904.88;221434;262;275707;-47
2021/08/15 00:53:04;;;;;;;;;;;;;;;23.47;69.01;96906.83;221503;261;195100;-52
2021/08/15 00:54:05;;;;;;;;;;;;;;;23.48;69.02;96905.67;222230;261;195494;-47
2021/08/15 00:55:06;;;;;;;;;;;;;;;23.47;68.99;96904.88;222693;261;98913;-52
2021/08/15 00:56:08;;;;;;;;;;;;;;;23.47;69.02;96899.92;222327;261;97061;-47
2021/08/15 00:57:09;;;;;;;;;;;;;;;23.46;69.01;96901.88;222234;261;99418;-49
2021/08/15 00:58:10;;;;;;;;;;;;;;;23.46;68.99;96899.11;222578;260;98950;-47
2021/08/15 00:59:12;;;;;;;;;;;;;;;23.47;68.98;96900.72;222988;259;98885;-47
2021/08/15 01:00:13;;;;;;;;;;;;;;;23.47;69.00;96898.53;222827;260;98937;-47
2021/08/15 01:01:14;;;;;;;;;;;;;;;23.47;69.00;96900.72;221202;260;193262;-47
2021/08/15 01:02:16;;;;;;;;;;;;;;;23.46;68.97;96899.11;221246;262;97880;-49
2021/08/15 01:03:17;;;;;;;;;;;;;;;23.46;68.98;96899.11;221446;260;99019;-47
2021/08/15 01:04:18;;;;;;;;;;;;;;;23.46;69.00;96894.97;222006;262;98874;-48
2021/08/15 01:05:20;;;;;;;;;;;;;;;23.46;69.01;96893.58;222445;260;98961;-47
2021/08/15 01:06:21;;;;;;;;;;;;;;;23.47;68.99;96903.48;222862;260;98974;-47
2021/08/15 01:07:22;;;;;;;;;;;;;;;23.45;69.02;96893.36;222592;261;97921;-51
2021/08/15 01:08:24;;;;;;;;;;;;;;;23.47;68.97;96889.66;222727;260;98066;-47
2021/08/15 01:09:25;;;;;;;;;;;;;;;23.46;69.00;96888.63;223083;259;97984;-47
2021/08/15 01:10:26;;;;;;;;;;;;;;;23.47;69.02;96894.38;222764;260;98945;-49
2021/08/15 01:11:28;;;;;;;;;;;;;;;23.46;68.99;96897.73;223093;260;98958;-48
2021/08/15 01:12:29;;;;;;;;;;;;;;;23.47;68.98;96895.77;222810;260;98972;-47
2021/08/15 01:13:31;;;;;;;;;;;;;;;23.46;69.02;96894.97;222277;260;97978;-47
2021/08/15 01:14:32;;;;;;;;;;;;;;;23.47;69.01;96898.53;221543;262;98978;-50
2021/08/15 01:15:33;;;;;;;;;;;;;;;23.47;69.01;96900.72;222515;260;194369;-47
2021/08/15 01:16:35;;;;;;;;;;;;;;;23.46;69.01;96896.93;223114;260;98809;-48
2021/08/15 01:17:36;;;;;;;;;;;;;;;23.46;69.02;96891.39;222742;260;98009;-48
2021/08/15 01:18:38;;;;;;;;;;;;;;;23.46;69.03;96893.58;222215;261;98017;-49
2021/08/15 01:19:39;;;;;;;;;;;;;;;23.47;69.04;96889.66;221696;262;99876;-47
2021/08/15 01:20:40;;;;;;;;;;;;;;;23.46;69.01;96892.20;222247;261;98951;-49
2021/08/15 01:21:42;;;;;;;;;;;;;;;23.46;69.05;96887.25;221834;262;99071;-51
2021/08/15 01:22:43;;;;;;;;;;;;;;;23.46;69.06;96883.91;221685;260;194322;-49
2021/08/15 01:23:44;;;;;;;;;;;;;;;23.46;69.05;96887.25;223041;260;98943;-47
2021/08/15 01:24:46;;;;;;;;;;;;;;;23.46;69.03;96883.91;222515;260;98739;-49
2021/08/15 01:25:47;;;;;;;;;;;;;;;23.46;69.05;96888.63;222264;261;98825;-46
2021/08/15 01:26:48;;;;;;;;;;;;;;;23.46;69.04;96886.67;221822;262;98872;-53
2021/08/15 01:27:50;;;;;;;;;;;;;;;23.46;69.04;96888.63;223127;260;98805;-49
2021/08/15 01:28:51;;;;;;;;;;;;;;;23.46;69.03;96884.48;222857;259;98974;-48
2021/08/15 01:29:52;;;;;;;;;;;;;;;23.45;69.00;96881.48;222296;260;98893;-49
2021/08/15 01:30:54;;;;;;;;;;;;;;;23.45;69.03;96885.06;222298;260;98103;-53
2021/08/15 01:31:56;;;;;;;;;;;;;;;23.46;69.01;96891.39;222139;260;98974;-50
2021/08/15 01:32:57;;;;;;;;;;;;;;;23.45;69.03;96885.06;222499;261;98023;-47
2021/08/15 01:34:42;;;;;;;;;;;;;;;23.42;69.23;96878.85;226871;255;70086;-48
2021/08/15 01:35:43;;;;;;;;;;;;;;;23.42;69.26;96885.77;222571;261;192059;-48
2021/08/15 01:36:44;;;;;;;;;;;;;;;23.45;69.26;96885.06;222460;261;276816;-48
2021/08/15 01:37:46;;;;;;;;;;;;;;;23.49;69.23;96884.58;222736;261;195605;-50
2021/08/15 01:38:47;;;;;;;;;;;;;;;23.50;69.16;96882.61;222707;260;193183;-52
2021/08/15 01:39:48;;;;;;;;;;;;;;;23.52;70.08;96888.05;223593;260;98505;-49
2021/08/15 01:40:50;;;;;;;;;;;;;;;23.52;69.55;96886.66;223273;260;189734;-49
2021/08/15 01:41:51;;;;;;;;;;;;;;;23.52;69.68;96890.02;223128;259;276373;-48
2021/08/15 01:42:52;;;;;;;;;;;;;;;23.54;69.54;96889.88;222571;260;194873;-47
2021/08/15 01:43:54;;;;;;;;;;;;;;;23.54;69.87;96888.50;222422;260;194187;-47
2021/08/15 01:44:56;;;;;;;;;;;;;;;23.57;70.11;96889.75;223817;259;97846;-47
2021/08/15 01:45:57;;;;;;;;;;;;;;;23.57;69.72;96893.33;222845;261;98279;-50
2021/08/15 01:46:58;;;;;;;;;;;;;;;23.56;69.55;96888.95;222969;260;100351;-49
2021/08/15 01:48:00;;;;;;;;;;;;;;;23.56;69.48;96885.38;221912;260;98949;-49
2021/08/15 01:49:01;;;;;;;;;;;;;;;23.56;69.51;96887.56;222918;261;98981;-47
2021/08/15 01:50:02;;;;;;;;;;;;;;;23.59;69.52;96886.89;222626;261;98960;-48
2021/08/15 01:51:04;;;;;;;;;;;;;;;23.61;69.66;96891.52;222602;261;193078;-51
2021/08/15 01:52:05;;;;;;;;;;;;;;;23.63;69.47;96889.20;222858;261;98041;-53
2021/08/15 01:53:06;;;;;;;;;;;;;;;23.65;69.50;96892.42;222592;261;98910;-49
2021/08/15 01:54:08;;;;;;;;;;;;;;;23.67;69.41;96894.83;222618;261;98943;-49
2021/08/15 01:55:09;;;;;;;;;;;;;;;23.68;69.43;96890.09;222381;261;100293;-50
2021/08/15 01:56:10;;;;;;;;;;;;;;;23.70;69.63;96893.31;222895;261;97954;-50
2021/08/15 01:57:12;;;;;;;;;;;;;;;23.70;69.48;96891.94;222586;261;98006;-51
2021/08/15 01:58:15;;;;;;;;;;;;;;;23.70;69.39;96894.13;222571;261;98130;-51
2021/08/15 01:59:16;;;;;;;;;;;;;;;23.69;69.66;96888.94;222486;261;98188;-63
2021/08/15 02:00:17;;;;;;;;;;;;;;;23.75;69.74;96887.55;223523;259;98090;-61
2021/08/15 02:01:19;;;;;;;;;;;;;;;23.82;69.72;96891.34;223585;259;98018;-61
2021/08/15 02:02:20;;;;;;;;;;;;;;;23.87;70.28;96886.13;221335;262;98926;-62
2021/08/15 02:03:21;;;;;;;;;;;;;;;23.89;69.76;96890.14;220908;262;274123;-56
2021/08/15 02:04:23;;;;;;;;;;;;;;;23.90;69.70;96882.64;221302;262;194881;-58
2021/08/15 02:05:24;;;;;;;;;;;;;;;23.89;69.31;96881.83;221674;262;193983;-65
2021/08/15 02:06:25;;;;;;;;;;;;;;;23.87;69.15;96882.77;221483;262;98953;-58
2021/08/15 02:07:27;;;;;;;;;;;;;;;23.91;69.39;96885.05;221145;262;97078;-61
2021/08/15 02:08:28;;;;;;;;;;;;;;;23.99;69.41;96880.53;220368;264;99039;-57
2021/08/15 02:09:29;;;;;;;;;;;;;;;24.05;69.29;96881.09;220950;262;99010;-59
2021/08/15 02:10:31;;;;;;;;;;;;;;;24.05;69.28;96881.90;222302;261;98927;-65
2021/08/15 02:11:32;;;;;;;;;;;;;;;24.11;69.11;96884.63;221732;261;98935;-61
2021/08/15 02:12:33;;;;;;;;;;;;;;;24.10;69.15;96881.63;221338;262;99335;-59
2021/08/15 02:13:35;;;;;;;;;;;;;;;24.11;69.07;96881.85;221069;261;98916;-49
2021/08/15 02:14:36;;;;;;;;;;;;;;;24.14;69.03;96878.40;222426;260;99043;-50
2021/08/15 02:15:37;;;;;;;;;;;;;;;24.18;68.97;96884.02;223101;260;98958;-52
2021/08/15 02:16:39;;;;;;;;;;;;;;;24.15;68.78;96877.23;220923;262;99417;-52
2021/08/15 02:17:40;;;;;;;;;;;;;;;24.17;68.77;96879.64;223093;260;99082;-50
2021/08/15 02:18:41;;;;;;;;;;;;;;;24.12;68.51;96877.92;222520;260;98951;-52
2021/08/15 02:19:43;;;;;;;;;;;;;;;24.12;68.52;96875.16;222640;260;193571;-50
2021/08/15 02:20:44;;;;;;;;;;;;;;;24.13;68.50;96879.53;223239;260;98957;-49
2021/08/15 02:21:46;;;;;;;;;;;;;;;24.14;68.58;96874.24;222797;260;97904;-55
2021/08/15 02:22:47;;;;;;;;;;;;;;;24.20;68.78;96878.93;223232;260;98032;-51
2021/08/15 02:23:48;;;;;;;;;;;;;;;24.23;69.09;96878.22;222912;260;98513;-51
2021/08/15 02:24:50;;;;;;;;;;;;;;;24.24;68.72;96883.42;223104;260;98965;-52
2021/08/15 02:25:53;;;;;;;;;;;;;;;24.21;68.49;96876.38;221996;260;98961;-53
2021/08/15 02:26:54;;;;;;;;;;;;;;;24.23;68.67;96877.63;221881;260;192133;-51
2021/08/15 02:27:55;;;;;;;;;;;;;;;24.21;68.28;96877.77;222402;260;97137;-51
2021/08/15 02:28:57;;;;;;;;;;;;;;;24.20;68.46;96871.42;222110;260;98996;-53
2021/08/15 02:29:58;;;;;;;;;;;;;;;24.23;68.57;96877.63;222202;260;97977;-50
2021/08/15 02:30:59;;;;;;;;;;;;;;;24.29;68.55;96878.19;222895;260;98008;-53
2021/08/15 02:32:01;;;;;;;;;;;;;;;24.25;70.08;96878.69;223219;260;98004;-50
2021/08/15 02:33:02;;;;;;;;;;;;;;;24.30;68.87;96872.07;222933;260;97113;-50
2021/08/15 02:34:03;;;;;;;;;;;;;;;24.37;68.48;96876.45;222740;260;100361;-49
2021/08/15 02:35:05;;;;;;;;;;;;;;;24.40;68.53;96877.92;223068;260;98995;-50
2021/08/15 02:36:06;;;;;;;;;;;;;;;24.42;68.32;96880.34;222969;260;98014;-49
2021/08/15 02:37:07;;;;;;;;;;;;;;;24.42;68.10;96879.75;223154;260;97956;-49
2021/08/15 02:38:09;;;;;;;;;;;;;;;24.47;68.10;96881.48;222854;260;96873;-51
2021/08/15 02:39:10;;;;;;;;;;;;;;;24.49;67.96;96878.56;222299;260;98954;-52
2021/08/15 02:40:11;;;;;;;;;;;;;;;24.55;68.17;96875.52;222509;260;98959;-53
2021/08/15 02:41:13;;;;;;;;;;;;;;;24.56;67.97;96880.69;222335;260;98946;-51
2021/08/15 02:42:14;;;;;;;;;;;;;;;24.57;67.67;96874.02;222610;260;98962;-52
2021/08/15 02:43:15;;;;;;;;;;;;;;;24.56;67.70;96876.54;221445;261;191452;-51
2021/08/15 02:44:17;;;;;;;;;;;;;;;24.58;67.90;96877.02;220633;262;277478;-51
2021/08/15 02:45:18;;;;;;;;;;;;;;;24.63;67.67;96880.09;221255;262;194824;-49
2021/08/15 02:46:19;;;;;;;;;;;;;;;24.64;67.49;96881.11;221782;261;192774;-49
2021/08/15 02:47:21;;;;;;;;;;;;;;;24.62;67.42;96877.89;221241;262;98003;-49
2021/08/15 02:48:22;;;;;;;;;;;;;;;24.61;67.20;96879.64;221544;261;98885;-51
2021/08/15 02:49:23;;;;;;;;;;;;;;;24.63;67.24;96880.89;221517;261;100358;-50
2021/08/15 02:50:25;;;;;;;;;;;;;;;24.60;67.13;96878.84;222017;261;98941;-48
2021/08/15 02:51:26;;;;;;;;;;;;;;;24.62;67.33;96879.86;221921;261;97974;-49
2021/08/15 02:52:27;;;;;;;;;;;;;;;24.64;67.40;96883.87;221193;261;97988;-52
2021/08/15 02:53:29;;;;;;;;;;;;;;;24.61;67.03;96880.45;220994;262;97990;-52
2021/08/15 02:54:30;;;;;;;;;;;;;;;24.60;67.11;96881.61;221256;261;98967;-49
2021/08/15 02:55:31;;;;;;;;;;;;;;;24.60;67.15;96873.30;221104;261;97977;-52
2021/08/15 02:56:33;;;;;;;;;;;;;;;24.71;67.52;96879.91;221245;261;98007;-50
2021/08/15 02:57:34;;;;;;;;;;;;;;;24.73;67.00;96880.36;221250;261;98010;-51
2021/08/15 02:58:35;;;;;;;;;;;;;;;24.73;66.79;96880.94;221389;261;99001;-54
2021/08/15 02:59:40;;;;;;;;;;;;;;;24.73;67.01;96877.58;221513;261;98946;-53
2021/08/15 03:00:41;;;;;;;;;;;;;;;24.75;66.99;96876.64;221046;262;192971;-51
2021/08/15 03:01:42;;;;;;;;;;;;;;;24.73;66.81;96874.81;221637;261;97986;-50
2021/08/15 03:02:44;;;;;;;;;;;;;;;24.71;66.84;96870.21;221204;261;98947;-51
2021/08/15 03:03:45;;;;;;;;;;;;;;;24.76;66.84;96869.93;221632;261;98922;-50
2021/08/15 03:04:46;;;;;;;;;;;;;;;24.75;67.28;96864.16;221059;261;98056;-53
2021/08/15 03:05:48;;;;;;;;;;;;;;;24.76;67.04;96871.31;221534;261;98962;-50
2021/08/15 03:06:49;;;;;;;;;;;;;;;24.78;66.96;96866.24;221263;261;99035;-54
2021/08/15 03:07:50;;;;;;;;;;;;;;;24.78;66.66;96867.63;221314;262;194058;-52
2021/08/15 03:08:52;;;;;;;;;;;;;;;24.82;66.73;96870.48;220493;262;98935;-50
2021/08/15 03:09:53;;;;;;;;;;;;;;;24.85;66.68;96867.56;220721;261;98117;-53
2021/08/15 03:10:54;;;;;;;;;;;;;;;24.90;66.59;96870.08;220337;262;97053;-51
2021/08/15 03:11:56;;;;;;;;;;;;;;;24.95;66.54;96876.72;220333;262;98983;-51
2021/08/15 03:12:57;;;;;;;;;;;;;;;24.95;66.30;96862.86;221164;262;99087;-51
2021/08/15 03:13:58;;;;;;;;;;;;;;;24.97;66.55;96866.88;220538;262;99447;-50
2021/08/15 03:15:00;;;;;;;;;;;;;;;24.99;66.62;96870.67;220120;262;98930;-52
2021/08/15 03:16:27;;;;;;;;;;;;;;;25.04;66.39;96867.08;227245;255;69916;-48
2021/08/15 03:17:28;;;;;;;;;;;;;;;25.05;66.22;96872.84;222237;260;189635;-49
2021/08/15 03:18:29;;;;;;;;;;;;;;;25.07;66.41;96871.09;221296;261;276798;-51
2021/08/15 03:19:31;;;;;;;;;;;;;;;25.06;66.03;96863.36;220581;262;195848;-49
2021/08/15 03:20:32;;;;;;;;;;;;;;;25.04;65.87;96859.34;222511;260;194162;-48
2021/08/15 03:21:35;;;;;;;;;;;;;;;25.05;66.50;96866.50;221773;262;97442;-47
2021/08/15 03:22:36;;;;;;;;;;;;;;;25.09;66.27;96861.83;223004;259;100363;-49
2021/08/15 03:23:37;;;;;;;;;;;;;;;25.11;65.97;96855.37;222600;260;98941;-53
2021/08/15 03:24:39;;;;;;;;;;;;;;;25.14;66.11;96858.80;221739;260;98959;-51
2021/08/15 03:25:40;;;;;;;;;;;;;;;25.17;66.10;96853.91;222505;260;98961;-50
2021/08/15 03:26:44;;;;;;;;;;;;;;;25.19;65.89;96855.73;222165;259;196965;-52
2021/08/15 03:27:44;;;;;;;;;;;;;;;25.17;65.70;96853.10;222137;259;162444;-47
2021/08/15 03:28:46;;;;;;;;;;;;;;;25.07;67.05;96858.63;222021;261;99436;-50
2021/08/15 03:29:47;;;;;;;;;;;;;;;25.13;66.24;96862.73;221916;261;99003;-48
2021/08/15 03:30:48;;;;;;;;;;;;;;;25.17;66.27;96858.65;222150;261;100313;-47
2021/08/15 03:31:50;;;;;;;;;;;;;;;25.16;65.64;96857.05;221735;261;98953;-54
2021/08/15 03:32:51;;;;;;;;;;;;;;;25.14;65.85;96860.18;222978;261;98953;-52
2021/08/15 03:33:52;;;;;;;;;;;;;;;25.13;65.36;96859.16;222598;261;98938;-51
2021/08/15 03:34:54;;;;;;;;;;;;;;;25.09;65.68;96858.50;222489;261;97961;-51
2021/08/15 03:35:55;;;;;;;;;;;;;;;25.14;65.98;96853.25;222061;261;98050;-53
2021/08/15 03:36:58;;;;;;;;;;;;;;;25.21;65.81;96850.64;221863;261;98937;-50
2021/08/15 03:37:59;;;;;;;;;;;;;;;25.08;65.62;96844.97;222281;260;99010;-52
2021/08/15 03:39:01;;;;;;;;;;;;;;;24.71;66.16;96854.16;222713;260;98954;-50
2021/08/15 03:40:02;;;;;;;;;;;;;;;24.41;66.80;96849.64;223377;259;275090;-52
2021/08/15 03:41:03;;;;;;;;;;;;;;;24.15;67.44;96848.16;221280;261;197556;-49
2021/08/15 03:42:05;;;;;;;;;;;;;;;24.05;67.80;96852.83;221073;262;193443;-53
2021/08/15 03:43:06;;;;;;;;;;;;;;;23.84;68.25;96849.47;222239;260;97990;-52
2021/08/15 03:44:07;;;;;;;;;;;;;;;23.70;68.97;96850.43;222647;260;98012;-56
2021/08/15 03:45:09;;;;;;;;;;;;;;;23.73;68.94;96863.00;222020;262;99130;-55
2021/08/15 03:46:10;;;;;;;;;;;;;;;23.60;68.78;96860.83;222103;261;98035;-50
2021/08/15 03:47:11;;;;;;;;;;;;;;;23.61;68.95;96865.23;222441;260;98979;-53
2021/08/15 03:48:13;;;;;;;;;;;;;;;23.72;68.77;96857.24;222847;260;98901;-52
2021/08/15 03:49:14;;;;;;;;;;;;;;;23.64;68.55;96856.23;222503;260;98936;-52
2021/08/15 03:50:15;;;;;;;;;;;;;;;23.66;70.19;96856.67;222529;261;99004;-56
2021/08/15 03:51:17;;;;;;;;;;;;;;;23.61;68.97;96849.22;222283;260;98008;-53
2021/08/15 03:52:18;;;;;;;;;;;;;;;23.56;69.20;96852.98;223054;260;97048;-56
2021/08/15 03:53:20;;;;;;;;;;;;;;;23.61;69.28;96850.02;222837;260;98962;-55
2021/08/15 03:54:21;;;;;;;;;;;;;;;23.54;69.05;96840.67;222412;260;99035;-54
2021/08/15 03:55:22;;;;;;;;;;;;;;;23.45;69.16;96839.42;222287;261;98945;-58
2021/08/15 03:56:24;;;;;;;;;;;;;;;23.48;69.36;96842.86;222175;261;193079;-58
2021/08/15 03:57:25;;;;;;;;;;;;;;;23.56;69.18;96848.03;222505;261;98113;-53
2021/08/15 03:58:28;;;;;;;;;;;;;;;23.58;68.78;96847.94;222283;261;98953;-58
2021/08/15 03:59:29;;;;;;;;;;;;;;;23.45;68.96;96846.34;222475;261;98988;-54
2021/08/15 04:00:31;;;;;;;;;;;;;;;23.37;69.36;96847.27;222289;261;98945;-51
2021/08/15 04:01:32;;;;;;;;;;;;;;;23.45;69.14;96843.56;222118;261;276890;-52
2021/08/15 04:02:33;;;;;;;;;;;;;;;23.43;69.20;96841.73;221990;261;194369;-49
2021/08/15 04:03:35;;;;;;;;;;;;;;;23.43;69.17;96845.88;222135;260;193173;-50
2021/08/15 04:04:36;;;;;;;;;;;;;;;23.44;69.96;96841.96;222404;261;97974;-54
2021/08/15 04:05:38;;;;;;;;;;;;;;;23.48;69.29;96846.20;222299;261;98793;-52
2021/08/15 04:07:19;;;;;;;;;;;;;;;23.50;68.93;96844.72;227368;255;69052;-55
2021/08/15 04:09:31;;;;;;;;;;;;;;;23.44;69.47;96853.61;226377;255;70320;-50
2021/08/15 04:10:32;;;;;;;;;;;;;;;23.54;69.34;96847.00;221059;262;189638;-51
2021/08/15 04:11:34;;;;;;;;;;;;;;;23.52;69.09;96845.17;222513;261;277158;-53
2021/08/15 04:12:55;;;;;;;;;;;;;;;23.49;69.09;96845.84;227172;255;70326;-59
2021/08/15 04:13:57;;;;;;;;;;;;;;;23.46;69.33;96842.41;222581;260;189648;-55
2021/08/15 04:14:58;;;;;;;;;;;;;;;23.50;69.64;96846.11;222662;261;276972;-54
2021/08/15 04:15:59;;;;;;;;;;;;;;;23.58;69.10;96845.16;221221;262;195675;-52
2021/08/15 04:17:01;;;;;;;;;;;;;;;23.51;68.94;96850.48;220317;263;194241;-57
2021/08/15 04:18:02;;;;;;;;;;;;;;;23.42;69.15;96844.28;222385;261;98946;-53
2021/08/15 04:19:03;;;;;;;;;;;;;;;23.51;69.34;96844.95;222753;259;189295;-51
2021/08/15 04:20:05;;;;;;;;;;;;;;;23.54;68.83;96843.44;220889;262;273231;-53
2021/08/15 04:21:06;;;;;;;;;;;;;;;23.46;69.05;96839.64;220606;263;193656;-57
2021/08/15 04:22:07;;;;;;;;;;;;;;;23.53;69.18;96844.59;221176;262;193551;-57
2021/08/15 04:23:09;;;;;;;;;;;;;;;23.48;69.55;96839.29;221527;262;99027;-54
2021/08/15 04:24:10;;;;;;;;;;;;;;;23.52;69.17;96841.02;220862;262;97987;-54
2021/08/15 04:25:11;;;;;;;;;;;;;;;23.57;69.16;96843.53;221552;262;98062;-52
2021/08/15 04:26:13;;;;;;;;;;;;;;;23.69;68.96;96836.37;221410;262;98035;-52
2021/08/15 04:27:14;;;;;;;;;;;;;;;23.62;68.54;96843.33;221743;262;98945;-52
2021/08/15 04:28:17;;;;;;;;;;;;;;;23.60;68.73;96841.46;221639;262;98987;-55
2021/08/15 04:29:18;;;;;;;;;;;;;;;23.53;68.90;96847.36;221429;262;193038;-51
2021/08/15 04:30:20;;;;;;;;;;;;;;;23.52;68.87;96850.70;221533;262;98027;-50
2021/08/15 04:31:21;;;;;;;;;;;;;;;23.55;68.73;96847.23;221305;262;98966;-58
2021/08/15 04:32:22;;;;;;;;;;;;;;;23.64;68.61;96846.55;221331;262;98950;-56
2021/08/15 04:33:26;;;;;;;;;;;;;;;23.68;68.63;96843.06;221238;262;97646;-54
2021/08/15 04:34:28;;;;;;;;;;;;;;;23.71;68.44;96845.11;221015;262;276697;-54
2021/08/15 04:35:30;;;;;;;;;;;;;;;23.63;68.59;96843.55;220345;262;195593;-54
2021/08/15 04:36:31;;;;;;;;;;;;;;;23.59;68.60;96841.23;220540;262;193310;-57
2021/08/15 04:37:32;;;;;;;;;;;;;;;23.63;68.74;96839.40;220525;262;98992;-55
2021/08/15 04:38:34;;;;;;;;;;;;;;;23.69;68.50;96844.09;220757;262;98100;-53
2021/08/15 04:39:35;;;;;;;;;;;;;;;23.48;72.45;96844.24;221774;262;98961;-54
2021/08/15 04:40:36;;;;;;;;;;;;;;;23.22;70.84;96836.95;222130;261;98942;-57
2021/08/15 04:41:38;;;;;;;;;;;;;;;23.17;70.99;96846.27;221207;262;98852;-54
2021/08/15 04:42:39;;;;;;;;;;;;;;;23.18;70.71;96844.31;222355;261;97225;-53
2021/08/15 04:43:41;;;;;;;;;;;;;;;23.22;69.87;96841.90;221509;262;193262;-53
2021/08/15 04:44:42;;;;;;;;;;;;;;;23.42;69.44;96840.13;221522;262;98970;-55
2021/08/15 04:45:45;;;;;;;;;;;;;;;23.57;69.09;96844.11;220472;262;98016;-59
2021/08/15 04:46:46;;;;;;;;;;;;;;;23.66;68.74;96846.19;220542;263;67466;-53
2021/08/15 04:47:48;;;;;;;;;;;;;;;23.66;68.56;96848.38;220204;263;98971;-59
2021/08/15 04:48:49;;;;;;;;;;;;;;;23.62;68.54;96844.70;220386;261;275003;-53
2021/08/15 04:49:50;;;;;;;;;;;;;;;23.69;68.45;96848.82;221540;262;194639;-55
2021/08/15 04:50:52;;;;;;;;;;;;;;;23.66;68.49;96848.38;220900;262;191943;-56
2021/08/15 04:51:54;;;;;;;;;;;;;;;23.62;68.74;96841.94;220678;263;97049;-59
2021/08/15 04:52:56;;;;;;;;;;;;;;;23.74;68.30;96841.09;220457;263;98985;-55
2021/08/15 04:53:57;;;;;;;;;;;;;;;23.87;68.36;96840.45;220486;263;98934;-57
2021/08/15 04:54:58;;;;;;;;;;;;;;;23.87;67.89;96839.06;220378;263;97984;-59
2021/08/15 04:56:00;;;;;;;;;;;;;;;23.71;68.38;96838.20;220085;263;104786;-57
2021/08/15 04:57:01;;;;;;;;;;;;;;;23.74;68.41;96836.13;219786;263;194751;-58
2021/08/15 04:58:02;;;;;;;;;;;;;;;23.69;68.43;96843.28;220007;263;192101;-59
2021/08/15 04:59:04;;;;;;;;;;;;;;;23.63;68.56;96838.59;220280;263;99455;-59
2021/08/15 05:00:05;;;;;;;;;;;;;;;23.60;68.54;96841.46;220141;263;98930;-55
2021/08/15 05:01:06;;;;;;;;;;;;;;;23.55;68.70;96841.70;220303;263;98025;-57
2021/08/15 05:02:08;;;;;;;;;;;;;;;23.46;69.02;96841.61;220181;263;97991;-57
2021/08/15 05:03:11;;;;;;;;;;;;;;;23.49;68.93;96846.43;220171;263;99417;-58
2021/08/15 05:04:12;;;;;;;;;;;;;;;23.52;68.98;96842.98;219547;263;193826;-59
2021/08/15 05:05:13;;;;;;;;;;;;;;;23.56;68.95;96842.50;221988;261;193463;-59
2021/08/15 05:06:15;;;;;;;;;;;;;;;23.64;68.72;96838.24;220711;263;98959;-58
2021/08/15 05:07:16;;;;;;;;;;;;;;;23.85;68.39;96833.09;221290;261;97961;-59
2021/08/15 05:08:17;;;;;;;;;;;;;;;23.83;68.35;96835.41;219459;264;98025;-59
2021/08/15 05:09:19;;;;;;;;;;;;;;;23.78;68.56;96830.91;219972;263;98003;-61
2021/08/15 05:10:20;;;;;;;;;;;;;;;23.78;68.62;96842.56;220803;262;98842;-53
2021/08/15 05:11:21;;;;;;;;;;;;;;;23.80;68.33;96840.23;220520;262;98926;-48
2021/08/15 05:12:23;;;;;;;;;;;;;;;23.71;68.49;96836.23;221028;262;98836;-50
2021/08/15 05:13:24;;;;;;;;;;;;;;;23.68;68.68;96837.53;221365;262;98958;-50
2021/08/15 05:14:25;;;;;;;;;;;;;;;23.63;69.11;96838.02;222522;261;98999;-49
2021/08/15 05:15:27;;;;;;;;;;;;;;;23.55;68.99;96837.55;221877;262;98983;-51
2021/08/15 05:16:28;;;;;;;;;;;;;;;23.66;68.77;96835.92;221535;262;98930;-52
2021/08/15 05:17:29;;;;;;;;;;;;;;;23.64;68.62;96836.86;220733;262;98937;-48
2021/08/15 05:18:31;;;;;;;;;;;;;;;23.68;68.79;96831.99;221008;263;98958;-48
2021/08/15 05:19:32;;;;;;;;;;;;;;;23.62;68.76;96833.64;220953;261;98934;-52
2021/08/15 05:20:33;;;;;;;;;;;;;;;23.63;68.87;96834.45;222167;261;98923;-48
2021/08/15 05:21:35;;;;;;;;;;;;;;;23.57;68.86;96834.42;221985;261;98963;-48
2021/08/15 05:22:36;;;;;;;;;;;;;;;23.51;68.92;96838.03;222316;261;98934;-54